TNCM/SXM METAR and TAF weather

Enter ICAO airport designator
Station Type Date Time Source
TNCM METAR 2020/07/15 05:00 UTC NOAA

TNCM 150500Z 05010KT 9999 FEW018 28/23 Q1016


Station Type Date Time Source
TNCM Decoded METAR 2020/07/15 05:00 UTC NOAA

Juliana Airport, Saint Maarten, Netherlands Antilles (TNCM) 18-03N 063-07W 9M
Jul 15, 2020 - 01:00 AM EDT / 2020.07.15 0500 UTC
Wind: from the NE (050 degrees) at 12 MPH (10 KT):0
Visibility: greater than 7 mile(s):0
Sky conditions: mostly clear
Temperature: 82 F (28 C)
Dew Point: 73 F (23 C)
Relative Humidity: 74%
Pressure (altimeter): 30.00 in. Hg (1016 hPa)
ob: TNCM 150500Z 05010KT 9999 FEW018 28/23 Q1016
cycle: 5

Station Type Date Time Source
TNCM TAF 2020/07/14 18:30 UTC NOAA

TAF TNCM 141727Z 1418/1518 08013KT P6SM VCSH SCT018

Example: see airport list